Time;durP1;ratioP1;P1;durP2;ratioP2;P2;SDS_P1;SDS_P2;PMS_P1;PMS_P2;Temp;Humidity;BMP_temperature;BMP_pressure;BME280_temperature;BME280_humidity;BME280_pressure;Samples;Min_cycle;Max_cycle;Signal;HPM_P1;HPM_P2
2021/10/04 00:00:08;;;;;;;4.28;3.75;;;;;;;;;;10281189;28;20434;-55
2021/10/04 00:05:09;;;;;;;8.60;5.22;;;;;;;;;;10281227;28;20080;-53
2021/10/04 00:10:10;;;;;;;14.23;8.95;;;;;;;;;;10281087;28;20564;-53
2021/10/04 00:15:09;;;;;;;15.07;10.93;;;;;;;;;;10280605;28;20402;-54
2021/10/04 00:20:09;;;;;;;20.08;10.75;;;;;;;;;;10280498;28;20073;-52
2021/10/04 00:25:09;;;;;;;12.95;7.47;;;;;;;;;;10280290;28;20421;-54
2021/10/04 00:30:09;;;;;;;7.30;5.38;;;;;;;;;;10280055;28;20081;-53
2021/10/04 00:35:08;;;;;;;16.17;9.40;;;;;;;;;;10280651;28;20132;-54
2021/10/04 00:40:08;;;;;;;12.60;9.65;;;;;;;;;;10279726;28;20044;-55
2021/10/04 00:45:09;;;;;;;15.13;9.23;;;;;;;;;;10279317;28;20037;-55
2021/10/04 00:50:09;;;;;;;9.55;5.95;;;;;;;;;;10279353;28;20056;-55
2021/10/04 00:55:08;;;;;;;5.95;5.20;;;;;;;;;;10279258;28;20056;-55
2021/10/04 01:00:10;;;;;;;7.60;5.50;;;;;;;;;;10278989;28;20045;-55
2021/10/04 01:05:09;;;;;;;8.95;4.70;;;;;;;;;;10279179;28;20091;-55
2021/10/04 01:10:09;;;;;;;12.80;5.10;;;;;;;;;;10278353;28;20076;-54
2021/10/04 01:15:09;;;;;;;8.00;5.20;;;;;;;;;;10278386;28;20080;-55
2021/10/04 01:20:11;;;;;;;10.95;5.35;;;;;;;;;;10277755;28;20183;-55
2021/10/04 01:25:10;;;;;;;10.40;5.47;;;;;;;;;;10278053;28;20060;-55
2021/10/04 01:30:09;;;;;;;7.68;5.22;;;;;;;;;;10277775;28;20088;-55
2021/10/04 01:35:08;;;;;;;9.57;5.03;;;;;;;;;;10277112;28;20084;-56
2021/10/04 01:40:09;;;;;;;8.43;5.85;;;;;;;;;;10277445;28;20057;-52
2021/10/04 01:45:09;;;;;;;9.10;5.90;;;;;;;;;;10276959;28;20430;-54
2021/10/04 01:50:08;;;;;;;9.05;4.78;;;;;;;;;;10277124;28;20100;-52
2021/10/04 01:55:10;;;;;;;8.07;6.22;;;;;;;;;;10276885;28;20076;-51
2021/10/04 02:00:10;;;;;;;10.43;5.63;;;;;;;;;;10276833;28;20052;-56
2021/10/04 02:05:09;;;;;;;6.75;5.07;;;;;;;;;;10275689;28;20048;-53
2021/10/04 02:10:10;;;;;;;8.45;5.03;;;;;;;;;;10276592;28;20521;-54
2021/10/04 02:15:09;;;;;;;9.82;5.43;;;;;;;;;;10276291;28;20072;-54
2021/10/04 02:20:09;;;;;;;7.75;5.55;;;;;;;;;;10275796;28;20080;-53
2021/10/04 02:25:09;;;;;;;18.77;5.60;;;;;;;;;;10276018;28;20047;-54
2021/10/04 02:30:09;;;;;;;8.27;5.63;;;;;;;;;;10275715;28;20044;-54
2021/10/04 02:35:08;;;;;;;6.78;4.80;;;;;;;;;;10275622;28;20089;-53
2021/10/04 02:40:07;;;;;;;11.95;9.38;;;;;;;;;;10275997;28;20293;-55
2021/10/04 02:45:08;;;;;;;12.50;9.02;;;;;;;;;;10278090;28;20502;-55
2021/10/04 02:50:07;;;;;;;12.40;9.30;;;;;;;;;;10284039;28;20411;-55
2021/10/04 02:55:06;;;;;;;17.33;9.55;;;;;;;;;;10284414;28;20084;-54
2021/10/04 03:00:05;;;;;;;14.15;9.95;;;;;;;;;;10283874;28;20052;-55
2021/10/04 03:05:05;;;;;;;12.25;10.15;;;;;;;;;;10283987;28;20414;-55
2021/10/04 03:10:04;;;;;;;18.80;9.75;;;;;;;;;;10283131;28;20079;-55
2021/10/04 03:15:02;;;;;;;14.98;10.20;;;;;;;;;;10282950;28;20469;-54
2021/10/04 03:20:01;;;;;;;12.68;9.55;;;;;;;;;;10282619;28;20452;-54
2021/10/04 03:25:00;;;;;;;16.73;9.52;;;;;;;;;;10282549;28;20080;-55
2021/10/04 03:29:59;;;;;;;17.50;11.00;;;;;;;;;;10282416;28;20048;-54
2021/10/04 03:34:57;;;;;;;12.88;9.75;;;;;;;;;;10282310;28;20612;-54
2021/10/04 03:39:55;;;;;;;15.73;10.27;;;;;;;;;;10281994;28;20041;-55
2021/10/04 03:44:55;;;;;;;13.88;9.13;;;;;;;;;;10281826;28;20068;-55
2021/10/04 03:49:53;;;;;;;14.70;9.25;;;;;;;;;;10281343;28;20037;-54
2021/10/04 03:54:52;;;;;;;13.32;9.98;;;;;;;;;;10280835;28;20083;-55
2021/10/04 03:59:50;;;;;;;12.10;8.95;;;;;;;;;;10279606;28;20073;-53
2021/10/04 04:04:49;;;;;;;17.67;8.95;;;;;;;;;;10280443;28;20073;-53
2021/10/04 04:09:48;;;;;;;15.77;8.88;;;;;;;;;;10280217;28;20068;-52
2021/10/04 04:14:46;;;;;;;14.25;8.73;;;;;;;;;;10280012;28;20076;-54
2021/10/04 04:19:44;;;;;;;10.20;7.82;;;;;;;;;;10279876;28;20056;-53
2021/10/04 04:24:44;;;;;;;15.63;8.30;;;;;;;;;;10299462;28;20552;-51
2021/10/04 04:29:42;;;;;;;11.68;7.43;;;;;;;;;;10320171;28;20047;-55
2021/10/04 04:34:41;;;;;;;9.25;7.20;;;;;;;;;;10319484;28;20477;-54
2021/10/04 04:39:39;;;;;;;18.55;11.43;;;;;;;;;;10319644;28;20076;-50
2021/10/04 04:44:39;;;;;;;15.65;8.35;;;;;;;;;;10320083;28;20456;-54
2021/10/04 04:49:37;;;;;;;19.45;11.90;;;;;;;;;;10319920;28;20049;-52
2021/10/04 04:54:35;;;;;;;20.58;12.52;;;;;;;;;;10318906;28;20171;-54
2021/10/04 04:59:34;;;;;;;9.60;6.32;;;;;;;;;;10312198;28;20080;-48
2021/10/04 05:04:34;;;;;;;27.85;20.45;;;;;;;;;;10318126;28;20079;-55
2021/10/04 05:09:32;;;;;;;26.48;17.27;;;;;;;;;;10317906;28;20051;-53
2021/10/04 05:14:30;;;;;;;10.73;6.30;;;;;;;;;;10317279;28;20103;-51
2021/10/04 05:19:29;;;;;;;11.38;6.65;;;;;;;;;;10318331;28;20084;-53
2021/10/04 05:24:28;;;;;;;12.95;6.80;;;;;;;;;;10318390;28;20490;-54
2021/10/04 05:29:27;;;;;;;10.85;7.22;;;;;;;;;;10318296;28;20468;-54
2021/10/04 05:34:25;;;;;;;11.93;6.50;;;;;;;;;;10317514;28;20111;-55
2021/10/04 05:39:23;;;;;;;17.10;10.82;;;;;;;;;;10317821;28;20047;-56
2021/10/04 05:44:23;;;;;;;18.00;8.40;;;;;;;;;;10317620;28;20036;-50
2021/10/04 05:49:21;;;;;;;10.43;6.30;;;;;;;;;;10317294;28;20079;-56
2021/10/04 05:54:21;;;;;;;9.43;6.25;;;;;;;;;;10317200;28;20076;-54
2021/10/04 05:59:20;;;;;;;21.08;13.50;;;;;;;;;;10317582;28;20049;-54
2021/10/04 06:04:19;;;;;;;20.45;17.25;;;;;;;;;;10317085;28;20418;-55
2021/10/04 06:09:18;;;;;;;15.13;5.82;;;;;;;;;;10316661;28;20083;-54
2021/10/04 06:14:16;;;;;;;11.77;6.80;;;;;;;;;;10316604;28;20083;-54
2021/10/04 06:19:14;;;;;;;11.40;6.97;;;;;;;;;;10316145;28;20045;-54
2021/10/04 06:24:14;;;;;;;9.70;7.47;;;;;;;;;;10316064;28;20072;-55
2021/10/04 06:29:12;;;;;;;10.88;6.25;;;;;;;;;;10316514;28;20040;-54
2021/10/04 06:34:11;;;;;;;14.43;12.25;;;;;;;;;;10316310;28;20178;-55
2021/10/04 06:39:09;;;;;;;10.73;5.93;;;;;;;;;;10316141;28;20516;-55
2021/10/04 06:44:09;;;;;;;7.80;5.03;;;;;;;;;;10316015;28;20084;-55
2021/10/04 06:49:27;;;;;;;12.30;5.78;;;;;;;;;;10316380;28;20099;-54
2021/10/04 06:54:26;;;;;;;10.65;5.22;;;;;;;;;;10314982;28;20107;-53
2021/10/04 06:59:25;;;;;;;13.00;5.55;;;;;;;;;;10316452;28;20427;-54
2021/10/04 07:04:23;;;;;;;13.75;5.80;;;;;;;;;;10316244;28;20417;-54
2021/10/04 07:09:22;;;;;;;10.25;5.90;;;;;;;;;;10315486;28;20114;-52
2021/10/04 07:14:20;;;;;;;11.45;6.60;;;;;;;;;;10315330;28;20084;-52
2021/10/04 07:19:20;;;;;;;13.82;7.78;;;;;;;;;;10315415;28;20040;-55
2021/10/04 07:24:18;;;;;;;16.23;10.50;;;;;;;;;;10315340;28;20076;-55
2021/10/04 07:29:17;;;;;;;13.20;7.10;;;;;;;;;;10315350;28;20493;-55
2021/10/04 07:34:16;;;;;;;12.75;8.63;;;;;;;;;;10322243;28;20083;-55
2021/10/04 07:39:16;;;;;;;17.17;7.78;;;;;;;;;;10322607;28;20044;-55
2021/10/04 07:44:14;;;;;;;25.55;16.98;;;;;;;;;;10322741;28;20076;-57
2021/10/04 07:49:13;;;;;;;20.95;9.90;;;;;;;;;;10322183;28;20410;-56
2021/10/04 07:54:27;;;;;;;15.93;8.05;;;;;;;;;;10322404;28;20084;-54
2021/10/04 07:59:25;;;;;;;13.70;6.80;;;;;;;;;;10322224;28;20052;-56
2021/10/04 08:04:24;;;;;;;18.83;12.55;;;;;;;;;;10322040;28;20087;-57
2021/10/04 08:09:22;;;;;;;23.98;18.67;;;;;;;;;;10321797;28;20052;-55
2021/10/04 08:14:22;;;;;;;25.73;13.98;;;;;;;;;;10321214;28;20083;-55
2021/10/04 08:19:20;;;;;;;34.63;22.15;;;;;;;;;;10321219;28;20485;-55
2021/10/04 08:24:18;;;;;;;18.83;11.98;;;;;;;;;;10320927;28;20072;-55
2021/10/04 08:29:17;;;;;;;17.30;10.85;;;;;;;;;;10321171;28;20048;-56
2021/10/04 08:34:16;;;;;;;15.07;8.45;;;;;;;;;;10320430;28;20080;-54
2021/10/04 08:39:15;;;;;;;14.27;7.95;;;;;;;;;;10320393;28;20485;-56
2021/10/04 08:44:14;;;;;;;16.73;8.20;;;;;;;;;;10319435;28;20045;-54
2021/10/04 08:49:13;;;;;;;21.92;10.15;;;;;;;;;;10319851;28;20036;-56
2021/10/04 08:54:13;;;;;;;23.60;11.18;;;;;;;;;;10320132;28;20083;-56
2021/10/04 08:59:13;;;;;;;23.15;9.35;;;;;;;;;;10319515;28;20041;-52
2021/10/04 09:04:11;;;;;;;22.98;6.13;;;;;;;;;;10319199;28;20413;-53
2021/10/04 09:09:10;;;;;;;14.80;6.45;;;;;;;;;;10319232;28;20055;-53
2021/10/04 09:14:12;;;;;;;15.60;7.00;;;;;;;;;;10318809;28;20087;-53
2021/10/04 09:19:17;;;;;;;11.95;6.10;;;;;;;;;;10318678;28;20099;-53
2021/10/04 09:24:16;;;;;;;8.60;5.57;;;;;;;;;;10318295;28;20441;-55
2021/10/04 09:29:15;;;;;;;9.43;4.90;;;;;;;;;;10318214;28;20076;-53
2021/10/04 09:34:15;;;;;;;4.72;4.20;;;;;;;;;;10318003;28;20092;-54
2021/10/04 09:39:17;;;;;;;7.45;4.60;;;;;;;;;;10317580;28;20051;-53
2021/10/04 09:44:18;;;;;;;19.77;13.30;;;;;;;;;;10317569;28;20052;-54
2021/10/04 09:49:16;;;;;;;10.10;4.78;;;;;;;;;;10318078;28;20076;-54
2021/10/04 09:54:16;;;;;;;6.28;3.85;;;;;;;;;;10316292;28;20087;-55
2021/10/04 09:59:14;;;;;;;9.20;4.63;;;;;;;;;;10317583;28;20056;-54
2021/10/04 10:04:20;;;;;;;4.93;3.17;;;;;;;;;;10317009;28;20048;-55
2021/10/04 10:09:19;;;;;;;12.50;4.57;;;;;;;;;;10317091;28;20055;-54
2021/10/04 10:14:18;;;;;;;9.73;4.70;;;;;;;;;;10317007;28;20083;-54
2021/10/04 10:19:18;;;;;;;6.32;3.15;;;;;;;;;;10316792;28;20044;-55
2021/10/04 10:24:30;;;;;;;5.47;4.03;;;;;;;;;;10316719;28;20052;-55
2021/10/04 10:29:28;;;;;;;12.35;4.40;;;;;;;;;;10316469;28;20055;-55
2021/10/04 10:34:42;;;;;;;5.40;3.58;;;;;;;;;;10316665;28;20449;-55
2021/10/04 10:39:45;;;;;;;5.70;3.28;;;;;;;;;;10316853;28;20048;-53
2021/10/04 10:45:08;;;;;;;9.60;3.92;;;;;;;;;;10316508;28;20083;-54
2021/10/04 10:50:09;;;;;;;10.75;3.85;;;;;;;;;;10302388;28;20482;-56
2021/10/04 10:55:22;;;;;;;10.60;6.03;;;;;;;;;;10316139;28;20076;-56
2021/10/04 11:00:23;;;;;;;14.30;4.75;;;;;;;;;;10315557;28;20406;-55
2021/10/04 11:05:40;;;;;;;6.05;3.28;;;;;;;;;;10317183;28;20048;-54
2021/10/04 11:11:00;;;;;;;5.65;3.50;;;;;;;;;;10324446;28;20516;-56
2021/10/04 11:16:01;;;;;;;6.47;3.22;;;;;;;;;;10314268;28;20084;-56
2021/10/04 11:21:02;;;;;;;6.65;2.65;;;;;;;;;;10323639;28;20051;-57
2021/10/04 11:26:01;;;;;;;4.20;2.33;;;;;;;;;;10323622;28;20071;-56
2021/10/04 11:31:02;;;;;;;4.28;2.90;;;;;;;;;;10323283;28;20063;-56
2021/10/04 11:36:01;;;;;;;3.63;2.75;;;;;;;;;;10323154;28;20072;-56
2021/10/04 11:40:59;;;;;;;8.77;2.67;;;;;;;;;;10323095;28;20044;-57
2021/10/04 11:45:58;;;;;;;6.72;2.65;;;;;;;;;;10322979;28;20485;-55
2021/10/04 11:50:58;;;;;;;9.13;3.85;;;;;;;;;;10322805;28;20075;-55
2021/10/04 11:55:57;;;;;;;10.40;2.90;;;;;;;;;;10322371;28;20107;-55
2021/10/04 12:00:56;;;;;;;5.53;3.20;;;;;;;;;;10322234;28;20044;-57
2021/10/04 12:05:55;;;;;;;9.38;3.67;;;;;;;;;;10322167;28;20060;-55
2021/10/04 12:10:56;;;;;;;7.97;5.05;;;;;;;;;;10322230;28;20055;-56
2021/10/04 12:15:55;;;;;;;8.38;5.38;;;;;;;;;;10321725;28;20075;-55
2021/10/04 12:21:13;;;;;;;10.38;5.13;;;;;;;;;;10319617;28;20044;-54
2021/10/04 12:26:14;;;;;;;6.47;3.28;;;;;;;;;;10321495;28;20068;-58
2021/10/04 12:31:27;;;;;;;5.90;2.97;;;;;;;;;;10320539;28;20528;-55
2021/10/04 12:36:25;;;;;;;11.27;5.72;;;;;;;;;;10320789;28;20079;-54
2021/10/04 12:41:39;;;;;;;7.03;3.97;;;;;;;;;;10320847;28;20478;-56
2021/10/04 12:46:37;;;;;;;9.55;4.13;;;;;;;;;;10320274;28;20544;-56
2021/10/04 12:51:45;;;;;;;9.18;4.57;;;;;;;;;;10320653;28;20045;-54
2021/10/04 12:56:51;;;;;;;14.70;4.25;;;;;;;;;;10320078;28;20505;-54
2021/10/04 13:01:50;;;;;;;6.47;3.95;;;;;;;;;;10319364;28;20040;-54
2021/10/04 13:06:48;;;;;;;6.07;4.22;;;;;;;;;;10319889;28;20059;-55
2021/10/04 13:11:49;;;;;;;6.72;3.30;;;;;;;;;;10319692;28;20041;-55
2021/10/04 13:16:48;;;;;;;7.53;3.35;;;;;;;;;;10319328;28;20083;-54
2021/10/04 13:21:46;;;;;;;8.18;3.63;;;;;;;;;;10319277;28;20481;-56
2021/10/04 13:26:45;;;;;;;7.93;3.47;;;;;;;;;;10318834;28;20040;-56
2021/10/04 13:31:45;;;;;;;6.05;3.40;;;;;;;;;;10318535;28;20052;-56
2021/10/04 13:36:44;;;;;;;9.55;3.28;;;;;;;;;;10318796;28;20076;-55
2021/10/04 13:41:42;;;;;;;5.20;2.58;;;;;;;;;;10318797;28;20048;-55
2021/10/04 13:46:40;;;;;;;11.88;8.25;;;;;;;;;;10318432;28;20040;-55
2021/10/04 13:51:40;;;;;;;16.90;9.77;;;;;;;;;;10318210;28;20055;-57
2021/10/04 13:56:38;;;;;;;25.70;15.48;;;;;;;;;;10316806;28;20498;-55
2021/10/04 14:01:37;;;;;;;9.07;6.68;;;;;;;;;;10317694;28;20466;-54
2021/10/04 14:06:56;;;;;;;9.18;6.75;;;;;;;;;;10317757;28;20040;-55
2021/10/04 14:11:54;;;;;;;9.38;5.50;;;;;;;;;;10317436;28;20441;-55
2021/10/04 14:16:52;;;;;;;7.28;4.30;;;;;;;;;;10317177;28;20480;-53
2021/10/04 14:21:51;;;;;;;8.13;4.15;;;;;;;;;;10317217;28;20047;-56
2021/10/04 14:26:50;;;;;;;10.35;3.80;;;;;;;;;;10316726;28;20083;-55
2021/10/04 14:31:49;;;;;;;9.50;4.53;;;;;;;;;;10316820;28;20060;-55
2021/10/04 14:36:47;;;;;;;5.45;2.72;;;;;;;;;;10316776;28;20080;-54
2021/10/04 14:41:46;;;;;;;9.48;4.93;;;;;;;;;;10315934;28;20114;-55
2021/10/04 14:46:45;;;;;;;9.27;4.85;;;;;;;;;;10316603;28;20051;-55
2021/10/04 14:51:44;;;;;;;6.45;5.03;;;;;;;;;;10316527;28;20076;-56
2021/10/04 14:56:42;;;;;;;7.90;3.58;;;;;;;;;;10315993;28;20080;-55
2021/10/04 15:01:41;;;;;;;9.35;6.63;;;;;;;;;;10316020;28;20076;-55
2021/10/04 15:06:41;;;;;;;43.38;28.92;;;;;;;;;;10316104;28;20505;-54
2021/10/04 15:11:39;;;;;;;27.65;22.17;;;;;;;;;;10316180;28;20493;-54
2021/10/04 15:16:38;;;;;;;5.05;3.55;;;;;;;;;;10316037;28;20413;-56
2021/10/04 15:21:36;;;;;;;15.93;5.97;;;;;;;;;;10315912;28;20045;-56
2021/10/04 15:26:35;;;;;;;9.43;6.07;;;;;;;;;;10315570;28;20040;-54
2021/10/04 15:31:34;;;;;;;9.50;4.63;;;;;;;;;;10314815;28;20394;-54
2021/10/04 15:36:33;;;;;;;11.80;6.90;;;;;;;;;;10315379;28;20083;-55
2021/10/04 15:41:31;;;;;;;10.50;5.03;;;;;;;;;;10315505;28;20056;-53
2021/10/04 15:46:31;;;;;;;17.20;7.22;;;;;;;;;;10315429;28;20417;-54
2021/10/04 15:51:30;;;;;;;12.35;5.75;;;;;;;;;;10314698;28;20441;-56
2021/10/04 15:56:28;;;;;;;10.52;4.50;;;;;;;;;;10321908;28;20106;-55
2021/10/04 16:01:26;;;;;;;13.57;5.38;;;;;;;;;;10322374;28;20418;-52
2021/10/04 16:06:26;;;;;;;8.90;5.68;;;;;;;;;;10321930;28;20413;-54
2021/10/04 16:11:28;;;;;;;16.05;5.65;;;;;;;;;;10321994;28;20036;-53
2021/10/04 16:16:28;;;;;;;13.25;5.22;;;;;;;;;;10321902;28;20079;-54
2021/10/04 16:21:29;;;;;;;8.18;4.35;;;;;;;;;;10320910;28;20041;-55
2021/10/04 16:26:27;;;;;;;11.57;4.55;;;;;;;;;;10321445;28;20408;-53
2021/10/04 16:31:28;;;;;;;10.50;4.60;;;;;;;;;;10321013;28;20057;-54
2021/10/04 16:36:27;;;;;;;12.23;6.60;;;;;;;;;;10320883;28;20079;-54
2021/10/04 16:41:27;;;;;;;17.50;4.93;;;;;;;;;;10320686;28;20036;-54
2021/10/04 16:46:25;;;;;;;5.68;4.88;;;;;;;;;;10320461;28;20032;-54
2021/10/04 16:51:23;;;;;;;9.77;4.53;;;;;;;;;;10320575;28;20048;-54
2021/10/04 16:56:21;;;;;;;8.05;5.20;;;;;;;;;;10319964;28;20079;-55
2021/10/04 17:01:21;;;;;;;10.52;5.00;;;;;;;;;;10315594;28;20453;-53
2021/10/04 17:06:26;;;;;;;13.05;5.30;;;;;;;;;;10318032;28;20033;-54
2021/10/04 17:11:24;;;;;;;7.10;5.50;;;;;;;;;;10300522;28;20155;-53
2021/10/04 17:16:27;;;;;;;10.18;6.72;;;;;;;;;;10299210;28;20481;-54
2021/10/04 17:21:29;;;;;;;11.85;6.03;;;;;;;;;;10294391;28;20608;-54
2021/10/04 17:26:28;;;;;;;9.98;5.97;;;;;;;;;;10293852;28;20052;-55
2021/10/04 17:31:28;;;;;;;7.95;6.00;;;;;;;;;;10277218;28;20080;-55
2021/10/04 17:36:26;;;;;;;10.40;5.45;;;;;;;;;;10284581;28;20064;-53
2021/10/04 17:41:25;;;;;;;9.90;5.38;;;;;;;;;;10288852;28;20422;-54
2021/10/04 17:46:23;;;;;;;9.63;6.15;;;;;;;;;;10277026;28;20073;-54
2021/10/04 17:51:23;;;;;;;11.38;6.35;;;;;;;;;;10276786;28;20049;-54
2021/10/04 17:56:23;;;;;;;11.40;5.95;;;;;;;;;;10290426;28;20119;-54
2021/10/04 18:01:24;;;;;;;9.48;5.10;;;;;;;;;;10293063;28;20095;-55
2021/10/04 18:06:24;;;;;;;9.48;5.80;;;;;;;;;;10276397;28;20049;-54
2021/10/04 18:11:23;;;;;;;10.57;5.95;;;;;;;;;;10281637;28;20064;-54
2021/10/04 18:16:21;;;;;;;9.70;5.13;;;;;;;;;;10283619;28;20083;-54
2021/10/04 18:21:27;;;;;;;8.48;4.47;;;;;;;;;;10294532;28;20068;-54
2021/10/04 18:26:25;;;;;;;8.02;5.20;;;;;;;;;;10291431;28;20069;-54
2021/10/04 18:31:26;;;;;;;7.13;5.55;;;;;;;;;;10275514;28;20057;-55
2021/10/04 18:36:25;;;;;;;8.07;4.90;;;;;;;;;;10275815;28;20055;-55
2021/10/04 18:41:24;;;;;;;6.60;4.78;;;;;;;;;;10275342;28;20510;-54
2021/10/04 18:46:23;;;;;;;15.40;11.77;;;;;;;;;;10275105;28;20087;-54
2021/10/04 18:51:21;;;;;;;12.43;9.48;;;;;;;;;;10272812;28;20068;-54
2021/10/04 18:56:19;;;;;;;8.10;5.57;;;;;;;;;;10272242;28;20068;-53
2021/10/04 19:01:21;;;;;;;13.93;7.13;;;;;;;;;;10274503;28;20103;-57
2021/10/04 19:06:20;;;;;;;9.45;4.82;;;;;;;;;;10274205;28;20049;-56
2021/10/04 19:11:20;;;;;;;10.60;7.35;;;;;;;;;;10275345;28;20045;-53
2021/10/04 19:16:19;;;;;;;7.15;4.20;;;;;;;;;;10275223;28;20052;-52
2021/10/04 19:21:19;;;;;;;9.30;4.47;;;;;;;;;;10272325;28;20083;-55
2021/10/04 19:26:18;;;;;;;7.80;3.65;;;;;;;;;;10287488;28;20312;-55
2021/10/04 19:31:17;;;;;;;8.35;3.97;;;;;;;;;;10301111;28;20081;-54
2021/10/04 19:36:16;;;;;;;6.70;3.88;;;;;;;;;;10301095;28;20080;-53
2021/10/04 19:41:18;;;;;;;9.75;3.47;;;;;;;;;;10302149;28;20556;-56
2021/10/04 19:46:17;;;;;;;5.43;3.20;;;;;;;;;;10300676;28;20068;-54
2021/10/04 19:51:17;;;;;;;5.13;3.38;;;;;;;;;;10300551;28;20055;-56
2021/10/04 19:56:16;;;;;;;7.80;5.30;;;;;;;;;;10302223;28;20076;-52
2021/10/04 20:01:21;;;;;;;12.32;3.45;;;;;;;;;;10299299;28;20068;-54
2021/10/04 20:06:20;;;;;;;7.53;3.78;;;;;;;;;;10301471;28;20064;-54
2021/10/04 20:11:18;;;;;;;4.82;3.65;;;;;;;;;;10299587;28;20513;-53
2021/10/04 20:16:17;;;;;;;7.13;3.05;;;;;;;;;;10321613;28;20048;-53
2021/10/04 20:21:18;;;;;;;5.93;3.25;;;;;;;;;;10321446;28;20087;-53
2021/10/04 20:26:21;;;;;;;10.00;4.05;;;;;;;;;;10321637;28;20410;-54
2021/10/04 20:31:19;;;;;;;9.35;4.82;;;;;;;;;;10321025;28;20091;-54
2021/10/04 20:36:19;;;;;;;6.50;3.95;;;;;;;;;;10320708;28;20064;-54
2021/10/04 20:41:17;;;;;;;8.85;3.90;;;;;;;;;;10319633;28;20079;-55
2021/10/04 20:46:18;;;;;;;10.90;4.60;;;;;;;;;;10320408;28;20048;-56
2021/10/04 20:51:16;;;;;;;8.63;4.25;;;;;;;;;;10320028;28;20044;-55
2021/10/04 20:56:16;;;;;;;7.88;4.13;;;;;;;;;;10320379;28;20049;-54
2021/10/04 21:01:16;;;;;;;9.52;4.47;;;;;;;;;;10319600;28;20146;-55
2021/10/04 21:06:17;;;;;;;9.07;4.45;;;;;;;;;;10319755;28;20052;-55
2021/10/04 21:11:16;;;;;;;9.07;3.92;;;;;;;;;;10319363;28;20043;-55
2021/10/04 21:16:15;;;;;;;4.80;4.30;;;;;;;;;;10317751;28;20052;-54
2021/10/04 21:21:13;;;;;;;7.35;4.60;;;;;;;;;;10319018;28;20104;-55
2021/10/04 21:26:11;;;;;;;11.18;4.60;;;;;;;;;;10318868;28;20075;-54
2021/10/04 21:31:11;;;;;;;7.78;4.10;;;;;;;;;;10318390;28;20103;-52
2021/10/04 21:36:10;;;;;;;5.80;3.78;;;;;;;;;;10318107;28;20068;-55
2021/10/04 21:41:08;;;;;;;13.73;4.88;;;;;;;;;;10318042;28;20075;-55
2021/10/04 21:46:06;;;;;;;7.05;3.83;;;;;;;;;;10318025;28;20037;-57
2021/10/04 21:51:06;;;;;;;6.28;4.28;;;;;;;;;;10317440;28;20048;-58
2021/10/04 21:56:05;;;;;;;7.63;3.90;;;;;;;;;;10317578;28;20425;-53
2021/10/04 22:01:11;;;;;;;6.25;3.92;;;;;;;;;;10317548;28;20087;-54
2021/10/04 22:11:24;;;;;;;5.05;3.45;;;;;;;;;;10317217;28;20044;-53
2021/10/04 22:16:22;;;;;;;7.32;3.55;;;;;;;;;;10317371;28;20055;-55
2021/10/04 22:21:22;;;;;;;11.10;5.75;;;;;;;;;;10317044;28;20072;-55
2021/10/04 22:26:22;;;;;;;6.10;3.53;;;;;;;;;;10317125;28;20072;-55
2021/10/04 22:31:20;;;;;;;6.60;3.80;;;;;;;;;;10316096;28;20083;-54
2021/10/04 22:36:19;;;;;;;5.60;4.05;;;;;;;;;;10316854;28;20041;-56
2021/10/04 22:41:18;;;;;;;4.50;3.67;;;;;;;;;;10316493;28;20482;-56
2021/10/04 22:46:17;;;;;;;7.18;3.80;;;;;;;;;;10316532;28;20072;-54
2021/10/04 22:51:15;;;;;;;7.40;4.32;;;;;;;;;;10316297;28;20055;-51
2021/10/04 22:56:14;;;;;;;6.78;4.05;;;;;;;;;;10316516;28;20154;-55
2021/10/04 23:01:14;;;;;;;3.95;3.38;;;;;;;;;;10316438;28;20072;-54
2021/10/04 23:06:12;;;;;;;4.75;3.92;;;;;;;;;;10324791;28;20413;-53
2021/10/04 23:11:10;;;;;;;6.82;4.45;;;;;;;;;;10324166;28;20080;-53
2021/10/04 23:16:09;;;;;;;6.03;3.95;;;;;;;;;;10323163;28;20097;-55
2021/10/04 23:21:12;;;;;;;7.03;3.60;;;;;;;;;;10323596;28;20495;-53
2021/10/04 23:26:11;;;;;;;7.38;4.13;;;;;;;;;;10323485;28;20037;-54
2021/10/04 23:31:09;;;;;;;7.65;3.55;;;;;;;;;;10321056;28;20080;-55
2021/10/04 23:36:08;;;;;;;6.78;3.58;;;;;;;;;;10323067;28;20464;-54
2021/10/04 23:41:07;;;;;;;4.35;3.50;;;;;;;;;;10323165;28;20079;-51
2021/10/04 23:46:06;;;;;;;9.90;3.65;;;;;;;;;;10322370;28;20045;-52
2021/10/04 23:51:04;;;;;;;11.63;4.60;;;;;;;;;;10322080;28;20045;-54
2021/10/04 23:56:02;;;;;;;6.43;4.05;;;;;;;;;;10322290;28;20052;-55
